createdAt,value
2023-05-24T00:02:04.281Z,8.90
2023-05-24T00:04:54.883Z,8.80
2023-05-24T00:07:45.318Z,8.80
2023-05-24T00:10:34.155Z,8.80
2023-05-24T00:13:23.028Z,8.80
2023-05-24T00:16:37.537Z,8.70
2023-05-24T00:19:27.620Z,8.60
2023-05-24T00:22:18.191Z,8.50
2023-05-24T00:25:11.355Z,8.60
2023-05-24T00:28:00.142Z,8.50
2023-05-24T00:30:49.154Z,8.50
2023-05-24T00:33:38.014Z,8.40
2023-05-24T00:36:27.166Z,8.40
2023-05-24T00:39:17.350Z,8.30
2023-05-24T00:42:06.904Z,8.30
2023-05-24T00:44:55.732Z,8.30
2023-05-24T00:47:47.897Z,8.30
2023-05-24T00:50:36.893Z,8.30
2023-05-24T00:53:26.162Z,8.20
2023-05-24T00:56:22.013Z,8.20
2023-05-24T00:59:22.582Z,8.20
2023-05-24T01:02:11.375Z,8.10
2023-05-24T01:05:04.086Z,8.10
2023-05-24T01:08:17.147Z,8.10
2023-05-24T01:11:14.323Z,8.10
2023-05-24T01:14:18.013Z,8.10
2023-05-24T01:17:15.248Z,8.00
2023-05-24T01:20:08.581Z,8.00
2023-05-24T01:23:16.930Z,8.00
2023-05-24T01:26:18.953Z,8.00
2023-05-24T01:29:09.648Z,7.90
2023-05-24T01:31:58.614Z,7.90
2023-05-24T01:34:47.382Z,7.90
2023-05-24T01:37:37.171Z,8.00
2023-05-24T01:40:25.940Z,8.00
2023-05-24T01:43:19.788Z,8.00
2023-05-24T01:46:19.142Z,7.90
2023-05-24T01:49:23.648Z,7.90
2023-05-24T01:52:17.404Z,7.90
2023-05-24T01:55:08.208Z,7.90
2023-05-24T01:58:03.305Z,7.80
2023-05-24T02:00:53.388Z,7.80
2023-05-24T02:03:43.789Z,7.80
2023-05-24T02:06:32.516Z,7.80
2023-05-24T02:09:21.448Z,7.70
2023-05-24T02:12:11.676Z,7.70
2023-05-24T02:15:00.412Z,7.60
2023-05-24T02:17:49.413Z,7.60
2023-05-24T02:20:39.947Z,7.50
2023-05-24T02:23:30.647Z,7.50
2023-05-24T02:26:19.780Z,7.40
2023-05-24T02:29:08.584Z,7.40
2023-05-24T02:31:57.411Z,7.30
2023-05-24T02:34:46.339Z,7.30
2023-05-24T02:37:36.510Z,7.20
2023-05-24T02:40:25.279Z,7.20
2023-05-24T02:43:14.069Z,7.10
2023-05-24T02:46:02.770Z,7.10
2023-05-24T02:48:51.544Z,7.10
2023-05-24T02:51:40.339Z,7.00
2023-05-24T02:54:30.492Z,7.00
2023-05-24T02:57:19.462Z,6.90
2023-05-24T03:00:09.933Z,6.90
2023-05-24T03:03:02.800Z,6.90
2023-05-24T03:05:51.586Z,6.80
2023-05-24T03:08:40.307Z,6.80
2023-05-24T03:11:30.540Z,6.60
2023-05-24T03:14:20.575Z,6.40
2023-05-24T03:17:09.339Z,6.20
2023-05-24T03:19:58.167Z,6.00
2023-05-24T03:22:46.900Z,5.90
2023-05-24T03:25:35.683Z,5.80
2023-05-24T03:28:25.909Z,5.70
2023-05-24T03:31:14.757Z,5.50
2023-05-24T03:34:03.611Z,5.50
2023-05-24T03:36:52.970Z,5.40
2023-05-24T03:39:41.699Z,5.40
2023-05-24T03:42:30.396Z,5.40
2023-05-24T03:45:30.616Z,5.30
2023-05-24T03:48:27.085Z,5.30
2023-05-24T03:51:15.852Z,5.30
2023-05-24T03:54:04.857Z,5.40
2023-05-24T03:56:53.965Z,5.40
2023-05-24T03:59:42.821Z,5.40
2023-05-24T04:02:33.023Z,5.40
2023-05-24T04:05:22.003Z,5.40
2023-05-24T04:08:10.903Z,5.40
2023-05-24T04:10:59.658Z,5.30
2023-05-24T04:13:48.362Z,5.40
2023-05-24T04:16:39.855Z,5.40
2023-05-24T04:19:30.056Z,5.50
2023-05-24T04:22:18.932Z,5.60
2023-05-24T04:25:10.145Z,5.70
2023-05-24T04:27:59.033Z,5.70
2023-05-24T04:30:47.754Z,5.70
2023-05-24T04:33:36.520Z,5.70
2023-05-24T04:36:26.827Z,5.70
2023-05-24T04:39:15.966Z,5.60
2023-05-24T04:42:05.372Z,5.60
2023-05-24T04:44:54.064Z,5.60
2023-05-24T04:47:43.504Z,5.60
2023-05-24T04:50:32.309Z,5.70
2023-05-24T04:53:23.182Z,5.80
2023-05-24T04:56:15.086Z,5.90
2023-05-24T04:59:04.401Z,6.00
2023-05-24T05:01:53.341Z,6.10
2023-05-24T05:04:42.204Z,6.20
2023-05-24T05:07:30.932Z,6.30
2023-05-24T05:10:23.676Z,6.40
2023-05-24T05:13:12.604Z,6.40
2023-05-24T05:16:02.069Z,6.50
2023-05-24T05:18:50.876Z,6.60
2023-05-24T05:21:40.113Z,6.70
2023-05-24T05:24:28.993Z,6.70
2023-05-24T05:27:20.266Z,6.80
2023-05-24T05:30:10.310Z,6.90
2023-05-24T05:32:59.447Z,6.90
2023-05-24T05:35:59.001Z,7.00
2023-05-24T05:38:47.899Z,7.10
2023-05-24T05:41:45.852Z,7.20
2023-05-24T05:44:58.894Z,7.30
2023-05-24T05:47:47.893Z,7.50
2023-05-24T05:50:36.536Z,7.70
2023-05-24T05:53:36.959Z,7.90
2023-05-24T05:56:37.479Z,8.10
2023-05-24T05:59:36.470Z,8.30
2023-05-24T06:02:32.479Z,8.50
2023-05-24T06:05:21.676Z,8.70
2023-05-24T06:08:10.534Z,8.80
2023-05-24T06:11:00.198Z,8.80
2023-05-24T06:13:49.411Z,8.80
2023-05-24T06:16:42.725Z,8.90
2023-05-24T06:19:32.915Z,8.80
2023-05-24T06:22:22.374Z,8.80
2023-05-24T06:25:15.934Z,8.80
2023-05-24T06:28:05.816Z,8.70
2023-05-24T06:30:54.653Z,8.50
2023-05-24T06:37:31.475Z,8.60
2023-05-24T06:40:20.594Z,8.60
2023-05-24T06:43:09.278Z,8.60
2023-05-24T06:45:58.172Z,8.70
2023-05-24T06:48:49.403Z,8.80
2023-05-24T06:51:48.512Z,8.90
2023-05-24T06:54:43.911Z,9.00
2023-05-24T06:57:41.139Z,9.20
2023-05-24T07:00:48.857Z,9.30
2023-05-24T07:03:37.882Z,9.50
2023-05-24T07:06:27.156Z,9.50
2023-05-24T07:09:16.119Z,9.50
2023-05-24T07:12:09.001Z,9.50
2023-05-24T07:14:58.017Z,9.40
2023-05-24T07:17:48.373Z,9.40
2023-05-24T07:20:37.233Z,9.50
2023-05-24T07:23:26.641Z,9.60
2023-05-24T07:26:32.024Z,9.70
2023-05-24T07:29:23.618Z,9.80
2023-05-24T07:32:12.377Z,9.80
2023-05-24T07:35:01.375Z,9.80
2023-05-24T07:37:50.223Z,9.70
2023-05-24T07:40:39.601Z,9.60
2023-05-24T07:43:28.500Z,9.60
2023-05-24T07:49:15.574Z,9.90
2023-05-24T07:52:04.761Z,10.10
2023-05-24T07:54:53.687Z,10.20
2023-05-24T07:57:42.835Z,10.40
2023-05-24T08:00:31.638Z,10.50
2023-05-24T08:03:21.944Z,10.60
2023-05-24T08:06:11.891Z,10.60
2023-05-24T08:09:00.691Z,10.60
2023-05-24T08:11:49.319Z,10.80
2023-05-24T08:14:39.649Z,10.90
2023-05-24T08:17:30.046Z,10.90
2023-05-24T08:20:53.673Z,10.80
2023-05-24T08:23:54.053Z,10.70
2023-05-24T08:26:45.969Z,10.60
2023-05-24T08:29:36.762Z,10.50
2023-05-24T08:32:28.273Z,10.50
2023-05-24T08:35:21.126Z,10.40
2023-05-24T08:38:12.243Z,10.40
2023-05-24T08:41:01.806Z,10.40
2023-05-24T08:43:51.208Z,10.40
2023-05-24T08:46:41.431Z,10.50
2023-05-24T08:49:33.791Z,10.50
2023-05-24T08:52:24.074Z,10.50
2023-05-24T11:10:37.360Z,14.00
2023-05-24T11:13:29.234Z,14.00
2023-05-24T11:16:38.217Z,13.60
2023-05-24T11:19:34.043Z,13.20
2023-05-24T11:22:25.446Z,13.10
2023-05-24T11:25:14.500Z,13.10
2023-05-24T11:28:05.249Z,13.10
2023-05-24T11:30:54.042Z,13.00
2023-05-24T11:33:43.758Z,12.90
2023-05-24T11:36:33.456Z,12.80
2023-05-24T11:39:23.672Z,12.80
2023-05-24T11:42:12.554Z,12.90
2023-05-24T11:45:03.131Z,13.00
2023-05-24T11:47:52.312Z,12.90
2023-05-24T11:50:49.119Z,13.10
2023-05-24T11:53:38.818Z,13.10
2023-05-24T11:56:31.562Z,13.00
2023-05-24T11:59:25.477Z,13.00
2023-05-24T12:02:15.975Z,13.00
2023-05-24T12:05:09.990Z,12.90
2023-05-24T12:08:06.506Z,12.90
2023-05-24T12:10:55.528Z,12.90
2023-05-24T12:13:45.156Z,12.90
2023-05-24T12:16:34.164Z,12.80
2023-05-24T12:19:33.109Z,12.70
2023-05-24T12:22:31.060Z,12.60
2023-05-24T12:25:22.112Z,12.50
2023-05-24T12:28:11.188Z,12.60
2023-05-24T12:31:00.015Z,12.60
2023-05-24T12:33:51.554Z,12.60
2023-05-24T12:36:44.400Z,12.70
2023-05-24T12:39:35.466Z,12.80
2023-05-24T12:42:24.650Z,12.90
2023-05-24T12:45:14.566Z,13.10
2023-05-24T12:48:05.269Z,13.30
2023-05-24T12:50:54.276Z,13.20
2023-05-24T12:53:44.643Z,13.10
2023-05-24T12:56:33.800Z,13.20
2023-05-24T12:59:23.658Z,13.20
2023-05-24T13:02:12.602Z,13.30
2023-05-24T13:05:01.716Z,13.20
2023-05-24T13:07:53.288Z,12.90
2023-05-24T13:10:43.946Z,12.80
2023-05-24T13:13:33.117Z,12.80
2023-05-24T13:16:22.155Z,12.70
2023-05-24T13:19:12.104Z,12.70
2023-05-24T13:22:00.983Z,12.90
2023-05-24T13:24:50.070Z,13.00
2023-05-24T13:27:41.200Z,13.00
2023-05-24T13:30:30.276Z,13.10
2023-05-24T13:33:19.320Z,13.20
2023-05-24T13:36:08.776Z,13.10
2023-05-24T13:39:13.235Z,13.00
2023-05-24T13:42:05.020Z,13.10
2023-05-24T13:44:56.421Z,13.20
2023-05-24T13:47:47.930Z,13.30
2023-05-24T13:50:37.813Z,13.40
2023-05-24T13:53:28.402Z,13.50
2023-05-24T13:56:19.135Z,13.80
2023-05-24T13:59:08.858Z,14.00
2023-05-24T14:01:59.445Z,14.00
2023-05-24T14:04:48.689Z,14.10
2023-05-24T14:07:40.413Z,14.10
2023-05-24T14:10:29.605Z,14.10
2023-05-24T14:16:13.064Z,13.90
2023-05-24T14:19:03.553Z,13.70
2023-05-24T14:21:52.474Z,13.60
2023-05-24T14:24:41.496Z,13.60
2023-05-24T14:27:30.394Z,13.60
2023-05-24T14:30:19.887Z,13.50
2023-05-24T14:33:11.694Z,13.50
2023-05-24T14:36:02.787Z,13.60
2023-05-24T14:38:52.203Z,13.50
2023-05-24T14:41:41.240Z,13.50
2023-05-24T14:44:31.220Z,13.40
2023-05-24T14:47:21.121Z,13.40
2023-05-24T14:50:10.693Z,13.40
2023-05-24T14:53:01.952Z,13.40
2023-05-24T14:55:52.822Z,13.70
2023-05-24T14:58:42.386Z,14.00
2023-05-24T15:01:34.014Z,14.00
2023-05-24T15:04:23.316Z,13.90
2023-05-24T15:07:12.547Z,13.80
2023-05-24T15:10:03.860Z,13.60
2023-05-24T15:12:53.064Z,13.30
2023-05-24T15:15:42.331Z,13.10
2023-05-24T15:18:33.142Z,12.90
2023-05-24T15:21:22.588Z,12.80
2023-05-24T15:24:13.417Z,12.90
2023-05-24T15:27:04.056Z,12.80
2023-05-24T15:29:59.061Z,12.70
2023-05-24T15:32:48.460Z,12.60
2023-05-24T15:35:38.475Z,12.80
2023-05-24T15:38:30.068Z,13.20
2023-05-24T15:41:19.470Z,13.50
2023-05-24T15:44:10.209Z,13.90
2023-05-24T15:46:59.631Z,14.00
2023-05-24T15:49:50.510Z,14.00
2023-05-24T15:52:39.486Z,14.30
2023-05-24T15:55:33.269Z,14.50
2023-05-24T15:58:22.599Z,14.40
2023-05-24T16:01:14.328Z,14.10
2023-05-24T16:04:03.201Z,14.00
2023-05-24T16:06:52.116Z,13.60
2023-05-24T16:09:41.634Z,13.30
2023-05-24T16:12:30.691Z,12.90
2023-05-24T16:15:19.823Z,12.70
2023-05-24T16:18:10.894Z,12.50
2023-05-24T16:20:59.730Z,12.40
2023-05-24T16:23:49.344Z,12.30
2023-05-24T16:26:38.080Z,12.20
2023-05-24T16:29:27.068Z,12.10
2023-05-24T16:32:16.330Z,12.10
2023-05-24T16:35:07.707Z,12.00
2023-05-24T16:37:57.248Z,12.00
2023-05-24T16:40:46.322Z,11.90
2023-05-24T16:43:35.203Z,12.00
2023-05-24T21:21:11.219Z,7.90
2023-05-24T21:33:18.751Z,8.00
2023-05-24T21:50:18.409Z,8.00
2023-05-24T21:53:07.180Z,8.00
2023-05-24T21:55:56.503Z,8.10
2023-05-24T21:58:46.176Z,8.10
2023-05-24T22:01:35.014Z,8.00
2023-05-24T22:04:23.888Z,8.00
2023-05-24T22:07:14.265Z,8.00
2023-05-24T22:10:03.191Z,8.00
2023-05-24T22:12:51.939Z,7.90
2023-05-24T22:15:40.856Z,7.90
2023-05-24T22:18:30.663Z,7.90
2023-05-24T22:21:21.696Z,7.90
2023-05-24T22:24:12.683Z,7.80
2023-05-24T22:27:02.643Z,7.80
2023-05-24T22:30:05.396Z,7.70
2023-05-24T22:32:54.213Z,7.80
2023-05-24T22:35:43.274Z,7.80
2023-05-24T22:38:32.092Z,7.80
2023-05-24T22:41:22.920Z,7.80
2023-05-24T22:44:11.933Z,7.90
2023-05-24T22:47:02.171Z,7.90
2023-05-24T22:49:54.099Z,7.90
2023-05-24T22:52:43.520Z,7.90
2023-05-24T22:55:32.257Z,7.80
2023-05-24T22:58:24.095Z,7.90
2023-05-24T23:01:12.911Z,7.80
2023-05-24T23:04:18.827Z,7.80
2023-05-24T23:07:09.584Z,7.80
2023-05-24T23:09:59.872Z,7.80
2023-05-24T23:12:48.642Z,7.80
2023-05-24T23:15:39.202Z,7.80
2023-05-24T23:18:28.179Z,7.80
2023-05-24T23:21:16.973Z,7.80
2023-05-24T23:24:07.231Z,7.80
2023-05-24T23:26:57.226Z,7.80
2023-05-24T23:29:46.368Z,7.80
2023-05-24T23:32:36.593Z,7.80
2023-05-24T23:35:25.379Z,7.90
2023-05-24T23:38:14.188Z,7.90
2023-05-24T23:41:02.928Z,7.80
2023-05-24T23:43:52.555Z,7.90
2023-05-24T23:46:42.179Z,7.90
2023-05-24T23:49:32.342Z,7.80
2023-05-24T23:52:21.396Z,7.80
2023-05-24T23:55:10.580Z,7.80
2023-05-24T23:58:00.535Z,7.70
